Aviation Digital Data Service (ADDS)

Output produced by METARs form (1357 UTC 22 April 2019)
found at http://www.aviationweather.gov/metar/data/
 
METAR text: SMJP 221300Z 08008KT 9999 SCT015 28/23 Q1013 NOSIG
Conditions at: SMJP (JOHAN A. PENGEL , SR) observed 1300 UTC 22 April 2019
Temperature: 28.0°C (82°F)
Dewpoint: 23.0°C (73°F) [RH = 74%]
Pressure (altimeter): 29.91 inches Hg (1013.0 mb)
Winds: from the E (80 degrees) at 9 MPH (8 knots; 4.1 m/s)
Visibility: 6 or more miles (10+ km)
Ceiling: at least 12,000 feet AGL
Clouds: scattered clouds at 1500 feet AGL
Weather: no significant weather observed at this time

METAR text: SMJP 221200Z 06004KT 9999 FEW008 26/24 Q1013 NOSIG
Conditions at: SMJP (JOHAN A. PENGEL , SR) observed 1200 UTC 22 April 2019
Temperature: 26.0°C (79°F)
Dewpoint: 24.0°C (75°F) [RH = 89%]
Pressure (altimeter): 29.91 inches Hg (1013.0 mb)
Winds: from the ENE (60 degrees) at 5 MPH (4 knots; 2.1 m/s)
Visibility: 6 or more miles (10+ km)
Ceiling: at least 12,000 feet AGL
Clouds: few clouds at 800 feet AGL
Weather: no significant weather observed at this time

METAR text: SMJP 221100Z VRB01KT 9999 FEW008 23/22 Q1012 NOSIG
Conditions at: SMJP (JOHAN A. PENGEL , SR) observed 1100 UTC 22 April 2019
Temperature: 23.0°C (73°F)
Dewpoint: 22.0°C (72°F) [RH = 94%]
Pressure (altimeter): 29.88 inches Hg (1012.0 mb)
Winds: variable direction winds at 1 MPH (1 knots; 0.5 m/s)
Visibility: 6 or more miles (10+ km)
Ceiling: at least 12,000 feet AGL
Clouds: few clouds at 800 feet AGL
Weather: no significant weather observed at this time

METAR text: SMJP 221013Z 29001KT 5000 BR FEW008 22/22 Q1012 BECMG AT1030 9999 NSW
Conditions at: SMJP (JOHAN A. PENGEL , SR) observed 1013 UTC 22 April 2019
Temperature: 22.0°C (72°F)
Dewpoint: 22.0°C (72°F) [RH = 100%]
Pressure (altimeter): 29.88 inches Hg (1012.0 mb)
Winds: from the WNW (290 degrees) at 1 MPH (1 knots; 0.5 m/s)
Visibility: 3 miles ( 5 km)
Ceiling: at least 12,000 feet AGL
Clouds: few clouds at 800 feet AGL
Weather: BR  (mist)

METAR text: SMJP 221000Z VRB01KT 0400 FG SCT004 22/21 Q1011 NOSIG
Conditions at: SMJP (JOHAN A. PENGEL , SR) observed 1000 UTC 22 April 2019
Temperature: 22.0°C (72°F)
Dewpoint: 21.0°C (70°F) [RH = 94%]
Pressure (altimeter): 29.85 inches Hg (1011.0 mb)
Winds: variable direction winds at 1 MPH (1 knots; 0.5 m/s)
Visibility: 0.25 miles (0.40 km)
Ceiling: at least 12,000 feet AGL
Clouds: scattered clouds at 400 feet AGL
Weather: FG  (fog)

METAR text: SMJP 220936Z VRB01KT 1000 BR SCT004 21/21 Q1011 BECMG AT1000 3000
Conditions at: SMJP (JOHAN A. PENGEL , SR) observed 0936 UTC 22 April 2019
Temperature: 21.0°C (70°F)
Dewpoint: 21.0°C (70°F) [RH = 100%]
Pressure (altimeter): 29.85 inches Hg (1011.0 mb)
Winds: variable direction winds at 1 MPH (1 knots; 0.5 m/s)
Visibility: 0.62 miles (1.00 km)
Ceiling: at least 12,000 feet AGL
Clouds: scattered clouds at 400 feet AGL
Weather: BR  (mist)

METAR text: SMJP 220900Z VRB01KT 4000 BR FEW004 SCT008 22/22 Q1011 BECMG AT0930 1500
Conditions at: SMJP (JOHAN A. PENGEL , SR) observed 0900 UTC 22 April 2019
Temperature: 22.0°C (72°F)
Dewpoint: 22.0°C (72°F) [RH = 100%]
Pressure (altimeter): 29.85 inches Hg (1011.0 mb)
Winds: variable direction winds at 1 MPH (1 knots; 0.5 m/s)
Visibility: 2.49 miles (4.01 km)
Ceiling: at least 12,000 feet AGL
Clouds: few clouds at 400 feet AGL
scattered clouds at 800 feet AGL
Weather: BR  (mist)

METAR text: SMJP 220800Z 13001KT 9999 FEW025 22/21 Q1011 NOSIG
Conditions at: SMJP (JOHAN A. PENGEL , SR) observed 0800 UTC 22 April 2019
Temperature: 22.0°C (72°F)
Dewpoint: 21.0°C (70°F) [RH = 94%]
Pressure (altimeter): 29.85 inches Hg (1011.0 mb)
Winds: from the SE (130 degrees) at 1 MPH (1 knots; 0.5 m/s)
Visibility: 6 or more miles (10+ km)
Ceiling: at least 12,000 feet AGL
Clouds: few clouds at 2500 feet AGL
Weather: no significant weather observed at this time

METAR text: SMJP 220700Z VRB01KT 9999 SCT025 23/22 Q1011 NOSIG
Conditions at: SMJP (JOHAN A. PENGEL , SR) observed 0700 UTC 22 April 2019
Temperature: 23.0°C (73°F)
Dewpoint: 22.0°C (72°F) [RH = 94%]
Pressure (altimeter): 29.85 inches Hg (1011.0 mb)
Winds: variable direction winds at 1 MPH (1 knots; 0.5 m/s)
Visibility: 6 or more miles (10+ km)
Ceiling: at least 12,000 feet AGL
Clouds: scattered clouds at 2500 feet AGL
Weather: no significant weather observed at this time

METAR text: SMJP 220600Z 30002KT 9999 FEW006 SCT025 23/22 Q1011 NOSIG
Conditions at: SMJP (JOHAN A. PENGEL , SR) observed 0600 UTC 22 April 2019
Temperature: 23.0°C (73°F)
Dewpoint: 22.0°C (72°F) [RH = 94%]
Pressure (altimeter): 29.85 inches Hg (1011.0 mb)
Winds: from the WNW (300 degrees) at 2 MPH (2 knots; 1.0 m/s)
Visibility: 6 or more miles (10+ km)
Ceiling: at least 12,000 feet AGL
Clouds: few clouds at 600 feet AGL
scattered clouds at 2500 feet AGL
Weather: no significant weather observed at this time

METAR text: SMJP 220500Z VRB01KT 9999 FEW006 SCT025 23/23 Q1012 NOSIG
Conditions at: SMJP (JOHAN A. PENGEL , SR) observed 0500 UTC 22 April 2019
Temperature: 23.0°C (73°F)
Dewpoint: 23.0°C (73°F) [RH = 100%]
Pressure (altimeter): 29.88 inches Hg (1012.0 mb)
Winds: variable direction winds at 1 MPH (1 knots; 0.5 m/s)
Visibility: 6 or more miles (10+ km)
Ceiling: at least 12,000 feet AGL
Clouds: few clouds at 600 feet AGL
scattered clouds at 2500 feet AGL
Weather: no significant weather observed at this time

METAR text: SMJP 220400Z 13003KT 9999 FEW006 SCT025 24/23 Q1012 NOSIG
Conditions at: SMJP (JOHAN A. PENGEL , SR) observed 0400 UTC 22 April 2019
Temperature: 24.0°C (75°F)
Dewpoint: 23.0°C (73°F) [RH = 94%]
Pressure (altimeter): 29.88 inches Hg (1012.0 mb)
Winds: from the SE (130 degrees) at 3 MPH (3 knots; 1.5 m/s)
Visibility: 6 or more miles (10+ km)
Ceiling: at least 12,000 feet AGL
Clouds: few clouds at 600 feet AGL
scattered clouds at 2500 feet AGL
Weather: no significant weather observed at this time

METAR text: SMJP 220300Z 08004KT 9999 SCT025 24/23 Q1013 NOSIG
Conditions at: SMJP (JOHAN A. PENGEL , SR) observed 0300 UTC 22 April 2019
Temperature: 24.0°C (75°F)
Dewpoint: 23.0°C (73°F) [RH = 94%]
Pressure (altimeter): 29.91 inches Hg (1013.0 mb)
Winds: from the E (80 degrees) at 5 MPH (4 knots; 2.1 m/s)
Visibility: 6 or more miles (10+ km)
Ceiling: at least 12,000 feet AGL
Clouds: scattered clouds at 2500 feet AGL
Weather: no significant weather observed at this time

METAR text: SMJP 220200Z 09004KT 9999 SCT025 24/23 Q1013 NOSIG
Conditions at: SMJP (JOHAN A. PENGEL , SR) observed 0200 UTC 22 April 2019
Temperature: 24.0°C (75°F)
Dewpoint: 23.0°C (73°F) [RH = 94%]
Pressure (altimeter): 29.91 inches Hg (1013.0 mb)
Winds: from the E (90 degrees) at 5 MPH (4 knots; 2.1 m/s)
Visibility: 6 or more miles (10+ km)
Ceiling: at least 12,000 feet AGL
Clouds: scattered clouds at 2500 feet AGL
Weather: no significant weather observed at this time

METAR text: SMJP 220100Z 01002KT 9999 FEW008 SCT025 24/23 Q1013 NOSIG
Conditions at: SMJP (JOHAN A. PENGEL , SR) observed 0100 UTC 22 April 2019
Temperature: 24.0°C (75°F)
Dewpoint: 23.0°C (73°F) [RH = 94%]
Pressure (altimeter): 29.91 inches Hg (1013.0 mb)
Winds: from the N (10 degrees) at 2 MPH (2 knots; 1.0 m/s)
Visibility: 6 or more miles (10+ km)
Ceiling: at least 12,000 feet AGL
Clouds: few clouds at 800 feet AGL
scattered clouds at 2500 feet AGL
Weather: no significant weather observed at this time

METAR text: SMJP 220000Z 04004KT 9999 FEW010 SCT025 24/23 Q1012 NOSIG
Conditions at: SMJP (JOHAN A. PENGEL , SR) observed 0000 UTC 22 April 2019
Temperature: 24.0°C (75°F)
Dewpoint: 23.0°C (73°F) [RH = 94%]
Pressure (altimeter): 29.88 inches Hg (1012.0 mb)
Winds: from the NE (40 degrees) at 5 MPH (4 knots; 2.1 m/s)
Visibility: 6 or more miles (10+ km)
Ceiling: at least 12,000 feet AGL
Clouds: few clouds at 1000 feet AGL
scattered clouds at 2500 feet AGL
Weather: no significant weather observed at this time

METAR text: SMJP 212300Z 01004KT 9999 FEW010 BKN025 24/23 Q1012 NOSIG
Conditions at: SMJP (JOHAN A. PENGEL , SR) observed 2300 UTC 21 April 2019
Temperature: 24.0°C (75°F)
Dewpoint: 23.0°C (73°F) [RH = 94%]
Pressure (altimeter): 29.88 inches Hg (1012.0 mb)
Winds: from the N (10 degrees) at 5 MPH (4 knots; 2.1 m/s)
Visibility: 6 or more miles (10+ km)
Ceiling: 2500 feet AGL
Clouds: few clouds at 1000 feet AGL
broken clouds at 2500 feet AGL
Weather: no significant weather observed at this time

METAR text: SMJP 212200Z 02008KT 9999 VCSH FE010 FEW015CB BKN025 24/23 Q1011 NOSIG
Conditions at: SMJP (JOHAN A. PENGEL , SR) observed 2200 UTC 21 April 2019
Temperature: 24.0°C (75°F)
Dewpoint: 23.0°C (73°F) [RH = 94%]
Pressure (altimeter): 29.85 inches Hg (1011.0 mb)
Winds: from the NNE (20 degrees) at 9 MPH (8 knots; 4.1 m/s)
Visibility: 6 or more miles (10+ km)
Ceiling: 2500 feet AGL
Clouds: few clouds at 1500 feet AGL
broken clouds at 2500 feet AGL
Weather: VCSH  (showers in vicinity)

METAR text: SMJP 212100Z 07012KT 8000 -SHRA FEW010 FEW018CB SCT025 26/23 Q1011 NOSIG
Conditions at: SMJP (JOHAN A. PENGEL , SR) observed 2100 UTC 21 April 2019
Temperature: 26.0°C (79°F)
Dewpoint: 23.0°C (73°F) [RH = 84%]
Pressure (altimeter): 29.85 inches Hg (1011.0 mb)
Winds: from the ENE (70 degrees) at 14 MPH (12 knots; 6.2 m/s)
Visibility: 5 miles ( 8 km)
Ceiling: at least 12,000 feet AGL
Clouds: few clouds at 1000 feet AGL
few clouds at 1800 feet AGL
scattered clouds at 2500 feet AGL
Weather: -SHRA  (light rain showers)

METAR text: SMJP 212000Z 05009KT 9999 FEW010 FEW018CB SCT025 26/23 Q1011 NOSIG
Conditions at: SMJP (JOHAN A. PENGEL , SR) observed 2000 UTC 21 April 2019
Temperature: 26.0°C (79°F)
Dewpoint: 23.0°C (73°F) [RH = 84%]
Pressure (altimeter): 29.85 inches Hg (1011.0 mb)
Winds: from the NE (50 degrees) at 10 MPH (9 knots; 4.6 m/s)
Visibility: 6 or more miles (10+ km)
Ceiling: at least 12,000 feet AGL
Clouds: few clouds at 1000 feet AGL
few clouds at 1800 feet AGL
scattered clouds at 2500 feet AGL
Weather: no significant weather observed at this time

METAR text: SMJP 211900Z 07013KT 9999 FEW010 SCT015 FEW020CB 27/23 Q1011 NOSIG
Conditions at: SMJP (JOHAN A. PENGEL , SR) observed 1900 UTC 21 April 2019
Temperature: 27.0°C (81°F)
Dewpoint: 23.0°C (73°F) [RH = 79%]
Pressure (altimeter): 29.85 inches Hg (1011.0 mb)
Winds: from the ENE (70 degrees) at 15 MPH (13 knots; 6.7 m/s)
Visibility: 6 or more miles (10+ km)
Ceiling: at least 12,000 feet AGL
Clouds: few clouds at 1000 feet AGL
scattered clouds at 1500 feet AGL
few clouds at 2000 feet AGL
Weather: no significant weather observed at this time

METAR text: SMJP 211800Z 07011KT 9999 FEW010 SCT035 26/24 Q1011 NOSIG
Conditions at: SMJP (JOHAN A. PENGEL , SR) observed 1800 UTC 21 April 2019
Temperature: 26.0°C (79°F)
Dewpoint: 24.0°C (75°F) [RH = 89%]
Pressure (altimeter): 29.85 inches Hg (1011.0 mb)
Winds: from the ENE (70 degrees) at 13 MPH (11 knots; 5.7 m/s)
Visibility: 6 or more miles (10+ km)
Ceiling: at least 12,000 feet AGL
Clouds: few clouds at 1000 feet AGL
scattered clouds at 3500 feet AGL
Weather: no significant weather observed at this time

METAR text: SMJP 211700Z 08018KT 8000 -SHRA SCT020 SCT030 30/23 Q1012 NOSIG
Conditions at: SMJP (JOHAN A. PENGEL , SR) observed 1700 UTC 21 April 2019
Temperature: 30.0°C (86°F)
Dewpoint: 23.0°C (73°F) [RH = 66%]
Pressure (altimeter): 29.88 inches Hg (1012.0 mb)
Winds: from the E (80 degrees) at 21 MPH (18 knots; 9.3 m/s)
Visibility: 5 miles ( 8 km)
Ceiling: at least 12,000 feet AGL
Clouds: scattered clouds at 2000 feet AGL
scattered clouds at 3000 feet AGL
Weather: -SHRA  (light rain showers)

METAR text: SMJP 211600Z 05007KT 9999 SCT025 30/24 Q1012 NOSIG
Conditions at: SMJP (JOHAN A. PENGEL , SR) observed 1600 UTC 21 April 2019
Temperature: 30.0°C (86°F)
Dewpoint: 24.0°C (75°F) [RH = 70%]
Pressure (altimeter): 29.88 inches Hg (1012.0 mb)
Winds: from the NE (50 degrees) at 8 MPH (7 knots; 3.6 m/s)
Visibility: 6 or more miles (10+ km)
Ceiling: at least 12,000 feet AGL
Clouds: scattered clouds at 2500 feet AGL
Weather: no significant weather observed at this time

METAR text: SMJP 211500Z 05008KT 9999 VCSH FEW025 SCT035 27/24 Q1014 NOSIG
Conditions at: SMJP (JOHAN A. PENGEL , SR) observed 1500 UTC 21 April 2019
Temperature: 27.0°C (81°F)
Dewpoint: 24.0°C (75°F) [RH = 84%]
Pressure (altimeter): 29.94 inches Hg (1014.0 mb)
Winds: from the NE (50 degrees) at 9 MPH (8 knots; 4.1 m/s)
Visibility: 6 or more miles (10+ km)
Ceiling: at least 12,000 feet AGL
Clouds: few clouds at 2500 feet AGL
scattered clouds at 3500 feet AGL
Weather: VCSH  (showers in vicinity)

METAR text: SMJP 211400Z 06010KT 9999 SCT025 30/23 Q1013 NOSIG
Conditions at: SMJP (JOHAN A. PENGEL , SR) observed 1400 UTC 21 April 2019
Temperature: 30.0°C (86°F)
Dewpoint: 23.0°C (73°F) [RH = 66%]
Pressure (altimeter): 29.91 inches Hg (1013.0 mb)
Winds: from the ENE (60 degrees) at 12 MPH (10 knots; 5.1 m/s)
Visibility: 6 or more miles (10+ km)
Ceiling: at least 12,000 feet AGL
Clouds: scattered clouds at 2500 feet AGL
Weather: no significant weather observed at this time

METAR text: SMJP 211300Z 06008KT 9999 SCT018 29/24 Q1014 NOSIG
Conditions at: SMJP (JOHAN A. PENGEL , SR) observed 1300 UTC 21 April 2019
Temperature: 29.0°C (84°F)
Dewpoint: 24.0°C (75°F) [RH = 74%]
Pressure (altimeter): 29.94 inches Hg (1014.0 mb)
Winds: from the ENE (60 degrees) at 9 MPH (8 knots; 4.1 m/s)
Visibility: 6 or more miles (10+ km)
Ceiling: at least 12,000 feet AGL
Clouds: scattered clouds at 1800 feet AGL
Weather: no significant weather observed at this time

METAR text: SMJP 211200Z 03004KT 9999 FEW010 27/24 Q1013 NOSIG
Conditions at: SMJP (JOHAN A. PENGEL , SR) observed 1200 UTC 21 April 2019
Temperature: 27.0°C (81°F)
Dewpoint: 24.0°C (75°F) [RH = 84%]
Pressure (altimeter): 29.91 inches Hg (1013.0 mb)
Winds: from the NNE (30 degrees) at 5 MPH (4 knots; 2.1 m/s)
Visibility: 6 or more miles (10+ km)
Ceiling: at least 12,000 feet AGL
Clouds: few clouds at 1000 feet AGL
Weather: no significant weather observed at this time

METAR text: SMJP 210900Z VRB01KT 9999 FEW010 23/22 Q1012 NOSIG
Conditions at: SMJP (JOHAN A. PENGEL , SR) observed 0900 UTC 21 April 2019
Temperature: 23.0°C (73°F)
Dewpoint: 22.0°C (72°F) [RH = 94%]
Pressure (altimeter): 29.88 inches Hg (1012.0 mb)
Winds: variable direction winds at 1 MPH (1 knots; 0.5 m/s)
Visibility: 6 or more miles (10+ km)
Ceiling: at least 12,000 feet AGL
Clouds: few clouds at 1000 feet AGL
Weather: no significant weather observed at this time

METAR text: SMJP 210800Z VRB01KT 9999 SCT012 23/23 Q1011 NOSIG
Conditions at: SMJP (JOHAN A. PENGEL , SR) observed 0800 UTC 21 April 2019
Temperature: 23.0°C (73°F)
Dewpoint: 23.0°C (73°F) [RH = 100%]
Pressure (altimeter): 29.85 inches Hg (1011.0 mb)
Winds: variable direction winds at 1 MPH (1 knots; 0.5 m/s)
Visibility: 6 or more miles (10+ km)
Ceiling: at least 12,000 feet AGL
Clouds: scattered clouds at 1200 feet AGL
Weather: no significant weather observed at this time

METAR text: SMJP 210700Z VRB01KT 9999 SCT015 24/23 Q1011 NOIG
Conditions at: SMJP (JOHAN A. PENGEL , SR) observed 0700 UTC 21 April 2019
Temperature: 24.0°C (75°F)
Dewpoint: 23.0°C (73°F) [RH = 94%]
Pressure (altimeter): 29.85 inches Hg (1011.0 mb)
Winds: variable direction winds at 1 MPH (1 knots; 0.5 m/s)
Visibility: 6 or more miles (10+ km)
Ceiling: at least 12,000 feet AGL
Clouds: scattered clouds at 1500 feet AGL
Weather: no significant weather observed at this time

METAR text: SMJP 210600Z VRB01KT 9999 SCT015 24/23 Q1011 NOSIG
Conditions at: SMJP (JOHAN A. PENGEL , SR) observed 0600 UTC 21 April 2019
Temperature: 24.0°C (75°F)
Dewpoint: 23.0°C (73°F) [RH = 94%]
Pressure (altimeter): 29.85 inches Hg (1011.0 mb)
Winds: variable direction winds at 1 MPH (1 knots; 0.5 m/s)
Visibility: 6 or more miles (10+ km)
Ceiling: at least 12,000 feet AGL
Clouds: scattered clouds at 1500 feet AGL
Weather: no significant weather observed at this time

METAR text: SMJP 210500Z VRB02KT 9999 SCT010 24/23 Q1011 NOSIG
Conditions at: SMJP (JOHAN A. PENGEL , SR) observed 0500 UTC 21 April 2019
Temperature: 24.0°C (75°F)
Dewpoint: 23.0°C (73°F) [RH = 94%]
Pressure (altimeter): 29.85 inches Hg (1011.0 mb)
Winds: variable direction winds at 2 MPH (2 knots; 1.0 m/s)
Visibility: 6 or more miles (10+ km)
Ceiling: at least 12,000 feet AGL
Clouds: scattered clouds at 1000 feet AGL
Weather: no significant weather observed at this time

METAR text: SMJP 210400Z VRB01KT 9999 FEW010 SCT020 24/23 Q1012 NOSIG
Conditions at: SMJP (JOHAN A. PENGEL , SR) observed 0400 UTC 21 April 2019
Temperature: 24.0°C (75°F)
Dewpoint: 23.0°C (73°F) [RH = 94%]
Pressure (altimeter): 29.88 inches Hg (1012.0 mb)
Winds: variable direction winds at 1 MPH (1 knots; 0.5 m/s)
Visibility: 6 or more miles (10+ km)
Ceiling: at least 12,000 feet AGL
Clouds: few clouds at 1000 feet AGL
scattered clouds at 2000 feet AGL
Weather: no significant weather observed at this time

METAR text: SMJP 210300Z VRB02KT CAVOK 24/23 Q1013 NOSIG
Conditions at: SMJP (JOHAN A. PENGEL , SR) observed 0300 UTC 21 April 2019
Temperature: 24.0°C (75°F)
Dewpoint: 23.0°C (73°F) [RH = 94%]
Pressure (altimeter): 29.91 inches Hg (1013.0 mb)
Winds: variable direction winds at 2 MPH (2 knots; 1.0 m/s)
Visibility: 6 or more miles (10+ km)
Ceiling: ceiling and visibility are OK
Clouds: unknown
Weather: no significant weather observed at this time

METAR text: SMJP 210200Z 06003KT 9999 FEW035 24/24 Q1013 NOSIG
Conditions at: SMJP (JOHAN A. PENGEL , SR) observed 0200 UTC 21 April 2019
Temperature: 24.0°C (75°F)
Dewpoint: 24.0°C (75°F) [RH = 100%]
Pressure (altimeter): 29.91 inches Hg (1013.0 mb)
Winds: from the ENE (60 degrees) at 3 MPH (3 knots; 1.5 m/s)
Visibility: 6 or more miles (10+ km)
Ceiling: at least 12,000 feet AGL
Clouds: few clouds at 3500 feet AGL
Weather: no significant weather observed at this time

Forecast for: SMJP (JOHAN A. PENGEL , SR)
Text: TAF SMJP 221000Z 2212/2312 07008KT 9999 SCT015 TX32/2218Z TN23/2310Z
Forecast period: 1200 to 2300 UTC 22 April 2019
Forecast type: FROM: standard forecast or significant change
Winds: from the ENE (70 degrees) at 9 MPH (8 knots; 4.1 m/s)
Visibility: 6 or more miles 10+ km)
Ceiling: at least 12,000 feet AGL
Clouds: scattered clouds at 1500 feet AGL
Weather: no significant weather forecast for this period
Text: TEMPO 2218/2222 5000 SHRA FEW015TCU SCT020
Forecast period: 1800 to 2200 UTC 22 April 2019
Forecast type: TEMPORARY: The following changes expected for less than half the time period
Visibility: 3 miles (5 km)
Ceiling: at least 12,000 feet AGL
Clouds: few clouds at 1500 feet AGL
scattered clouds at 2000 feet AGL
Weather: SHRA  (rain showers)
Text: BECMG 2223/2301 08003KT FEW010
Forecast period: 2300 UTC 22 April 2019 to 1200 UTC 23 April 2019
Forecast type: BECOMING: Conditions expected to become as follows by 0100 UTC 23 April 2019
Winds: from the E (80 degrees) at 3 MPH (3 knots; 1.5 m/s)
Visibility: 6 or more miles 10+ km)
Ceiling: at least 12,000 feet AGL
Clouds: few clouds at 1000 feet AGL
Weather: no significant weather forecast for this period
Text: PROB30
Forecast period: 0900 to 1100 UTC 23 April 2019
Forecast type: TEMPORARY: The following changes expected for less than half the time period
Winds: calm
Visibility: 2.49 miles (4.01 km)
Ceiling: at least 12,000 feet AGL
Clouds: few clouds at 300 feet AGL
Weather: BR  (mist)